Time;durP1;ratioP1;P1;durP2;ratioP2;P2;SDS_P1;SDS_P2;PMS_P1;PMS_P2;Temp;Humidity;BMP_temperature;BMP_pressure;BME280_temperature;BME280_humidity;BME280_pressure;Samples;Min_cycle;Max_cycle;Signal;HPM_P1;HPM_P2
2022/06/18 00:01:34;;;;;;;8.75;3.30;;;;;;;19.45;99.92;101683.31;5010201;28;20142;-34
2022/06/18 00:04:08;;;;;;;6.70;2.90;;;;;;;19.43;100.00;101681.97;5010030;28;20065;-29
2022/06/18 00:06:39;;;;;;;7.45;2.85;;;;;;;19.38;100.00;101683.03;5009984;28;20056;-32
2022/06/18 00:09:07;;;;;;;8.55;3.38;;;;;;;19.36;99.90;101679.69;5010850;28;20049;-29
2022/06/18 00:14:21;;;;;;;6.72;2.90;;;;;;;19.29;100.00;101685.03;5011575;28;20056;-33
2022/06/18 00:16:49;;;;;;;5.65;2.80;;;;;;;19.27;99.46;101684.53;5011767;28;20052;-30
2022/06/18 00:19:18;;;;;;;7.95;3.15;;;;;;;19.25;99.31;101684.88;5010942;28;20492;-35
2022/06/18 00:21:46;;;;;;;9.02;3.35;;;;;;;19.22;100.00;101690.38;5010789;28;20054;-28
2022/06/18 00:24:16;;;;;;;6.18;3.05;;;;;;;19.18;100.00;101689.41;5011801;28;20057;-28
2022/06/18 00:26:45;;;;;;;7.50;3.30;;;;;;;19.13;100.00;101693.25;5011014;28;20053;-29
2022/06/18 00:29:17;;;;;;;7.38;3.10;;;;;;;19.09;100.00;101685.78;5010502;28;20060;-31
2022/06/18 00:31:45;;;;;;;8.18;3.45;;;;;;;19.05;100.00;101679.13;5010826;28;20474;-30
2022/06/18 00:34:13;;;;;;;10.80;4.22;;;;;;;19.01;100.00;101683.78;5011688;28;20045;-28
2022/06/18 00:36:44;;;;;;;7.47;3.50;;;;;;;18.97;100.00;101675.16;5011239;28;20530;-28
2022/06/18 00:39:15;;;;;;;10.90;3.47;;;;;;;18.91;100.00;101680.16;5011536;28;20050;-34
2022/06/18 00:41:45;;;;;;;5.63;3.03;;;;;;;18.86;100.00;101680.31;5010952;28;20042;-33
2022/06/18 00:44:23;;;;;;;8.55;4.18;;;;;;;18.85;100.00;101680.66;5010241;28;20545;-33
2022/06/18 00:47:02;;;;;;;10.50;3.85;;;;;;;18.81;100.00;101679.66;5010826;28;20056;-30
2022/06/18 00:49:37;;;;;;;12.52;4.20;;;;;;;18.75;100.00;101675.38;5011564;28;20407;-29
2022/06/18 00:52:13;;;;;;;9.95;3.80;;;;;;;18.72;100.00;101681.69;5011206;28;20145;-29
2022/06/18 00:54:47;;;;;;;7.20;3.25;;;;;;;18.67;100.00;101673.38;5010279;28;20136;-32
2022/06/18 00:57:19;;;;;;;8.45;3.53;;;;;;;18.61;100.00;101678.34;5015040;28;20044;-37
2022/06/18 00:59:52;;;;;;;9.05;3.75;;;;;;;18.57;100.00;101678.19;5013987;28;20439;-36
2022/06/18 01:02:22;;;;;;;8.90;4.18;;;;;;;18.54;100.00;101680.84;5014347;28;20439;-28
2022/06/18 01:04:52;;;;;;;7.97;4.22;;;;;;;18.50;100.00;101679.84;5014881;28;20049;-31
2022/06/18 01:07:28;;;;;;;9.73;3.85;;;;;;;18.49;100.00;101686.66;5014315;28;20049;-37
2022/06/18 01:09:58;;;;;;;9.23;4.20;;;;;;;18.45;100.00;101682.81;5013690;28;20096;-29
2022/06/18 01:12:26;;;;;;;9.60;4.15;;;;;;;18.41;100.00;101688.28;5014508;28;20054;-30
2022/06/18 01:15:02;;;;;;;7.90;3.53;;;;;;;18.38;100.00;101683.34;5014155;28;20060;-28
2022/06/18 01:17:33;;;;;;;7.55;3.53;;;;;;;18.33;100.00;101680.66;5012876;28;20050;-30
2022/06/18 01:20:04;;;;;;;7.47;3.40;;;;;;;18.30;100.00;101686.97;5014711;28;20523;-29
2022/06/18 01:22:41;;;;;;;7.93;3.83;;;;;;;18.25;100.00;101685.13;5013198;28;20088;-31
2022/06/18 01:25:12;;;;;;;6.75;3.47;;;;;;;18.20;100.00;101676.81;5003542;28;20478;-30
2022/06/18 01:27:43;;;;;;;11.82;5.00;;;;;;;18.17;100.00;101682.31;5012393;28;20578;-27
2022/06/18 01:30:25;;;;;;;11.15;4.47;;;;;;;18.13;100.00;101670.84;5012339;28;20041;-32
2022/06/18 01:32:55;;;;;;;7.00;3.65;;;;;;;18.09;100.00;101672.66;5013079;28;20046;-27
2022/06/18 01:35:26;;;;;;;12.98;4.70;;;;;;;18.07;100.00;101674.16;5004101;28;20069;-34
2022/06/18 01:38:05;;;;;;;7.60;3.58;;;;;;;18.02;100.00;101674.31;5012492;28;20054;-30
2022/06/18 01:40:40;;;;;;;10.32;4.40;;;;;;;17.99;100.00;101681.44;5002805;28;20054;-28
2022/06/18 01:43:13;;;;;;;6.72;3.42;;;;;;;17.93;100.00;101679.94;5013578;28;20038;-32
2022/06/18 01:45:42;;;;;;;7.17;3.87;;;;;;;17.87;100.00;101669.97;5002243;28;20046;-35
2022/06/18 01:48:17;;;;;;;9.55;4.07;;;;;;;17.84;100.00;101665.81;5013692;28;20050;-36
2022/06/18 01:50:52;;;;;;;6.90;3.33;;;;;;;17.79;100.00;101674.41;5012086;28;20042;-31
2022/06/18 01:53:23;;;;;;;11.40;4.47;;;;;;;17.75;100.00;101684.72;5012746;28;20057;-28
2022/06/18 01:55:57;;;;;;;9.48;4.20;;;;;;;17.73;100.00;101683.38;5012894;28;20077;-29
2022/06/18 01:58:32;;;;;;;11.52;4.80;;;;;;;17.70;100.00;101687.69;5012011;28;20440;-29
2022/06/18 02:01:02;;;;;;;6.43;3.38;;;;;;;17.67;100.00;101685.53;5012591;28;20053;-30
2022/06/18 02:03:31;;;;;;;7.50;3.30;;;;;;;17.65;100.00;101684.19;5012047;28;20042;-29
2022/06/18 02:05:59;;;;;;;8.02;3.63;;;;;;;17.62;100.00;101682.81;5013657;28;20104;-28
2022/06/18 02:08:28;;;;;;;6.22;3.08;;;;;;;17.60;100.00;101682.31;5012393;28;20053;-27
2022/06/18 02:11:00;;;;;;;5.53;3.17;;;;;;;17.60;100.00;101695.56;5012176;28;20046;-38
2022/06/18 02:13:34;;;;;;;7.97;4.10;;;;;;;17.56;100.00;101692.59;5012012;28;20068;-33
2022/06/18 02:16:08;;;;;;;5.80;3.45;;;;;;;17.53;100.00;101694.09;5012273;28;20050;-35
2022/06/18 02:18:38;;;;;;;7.38;4.05;;;;;;;17.50;100.00;101700.38;5013011;28;20137;-30
2022/06/18 02:21:10;;;;;;;13.05;4.88;;;;;;;17.49;100.00;101706.34;5013669;28;20125;-35
2022/06/18 02:23:38;;;;;;;7.65;3.83;;;;;;;17.44;100.00;101696.03;5013480;28;20049;-28
2022/06/18 02:26:08;;;;;;;7.72;3.42;;;;;;;17.43;100.00;101699.16;5011128;28;20053;-36
2022/06/18 02:28:39;;;;;;;5.70;3.25;;;;;;;17.42;100.00;101691.84;5013768;28;20049;-28
2022/06/18 02:31:13;;;;;;;7.85;3.42;;;;;;;17.38;100.00;101694.53;5010280;28;20058;-28
2022/06/18 02:33:47;;;;;;;7.03;3.45;;;;;;;17.36;100.00;101696.84;5011398;28;20050;-33
2022/06/18 02:36:18;;;;;;;7.13;4.05;;;;;;;17.33;100.00;101696.66;5011724;28;20046;-29
2022/06/18 02:38:55;;;;;;;6.82;3.70;;;;;;;17.32;100.00;101694.97;5012722;28;20104;-32
2022/06/18 02:41:25;;;;;;;8.80;3.42;;;;;;;17.30;100.00;101697.28;5011702;28;20111;-32
2022/06/18 02:43:54;;;;;;;11.65;4.70;;;;;;;17.27;100.00;101704.41;5011712;28;20149;-34
2022/06/18 02:46:23;;;;;;;7.13;3.75;;;;;;;17.24;100.00;101716.34;5012295;28;20129;-28
2022/06/18 02:48:52;;;;;;;9.15;4.43;;;;;;;17.22;100.00;101719.47;5012647;28;20057;-29
2022/06/18 02:51:20;;;;;;;10.85;4.10;;;;;;;17.18;100.00;101717.66;5011371;28;20573;-33
2022/06/18 02:53:48;;;;;;;9.10;4.18;;;;;;;17.17;100.00;101730.09;5011180;28;20172;-28
2022/06/18 02:56:16;;;;;;;10.07;3.92;;;;;;;17.13;100.00;101731.88;5011178;28;20333;-30
2022/06/18 02:58:46;;;;;;;8.82;4.20;;;;;;;17.13;100.00;101743.16;5012977;28;20056;-33
2022/06/18 03:01:17;;;;;;;6.38;3.28;;;;;;;17.10;100.00;101732.50;5011702;28;20120;-29
2022/06/18 03:03:48;;;;;;;8.27;4.05;;;;;;;17.08;100.00;101724.38;5011369;28;20084;-29
2022/06/18 03:06:18;;;;;;;7.65;4.18;;;;;;;17.06;100.00;101737.13;5011107;28;20045;-28
2022/06/18 03:08:48;;;;;;;10.23;4.13;;;;;;;17.06;100.00;101742.75;5012021;28;20054;-29
2022/06/18 03:14:08;;;;;;;8.43;3.80;;;;;;;17.02;100.00;101753.03;5011932;28;20414;-32
2022/06/18 03:16:36;;;;;;;9.07;4.15;;;;;;;17.01;100.00;101751.34;5010967;28;20141;-30
2022/06/18 03:19:05;;;;;;;7.75;3.38;;;;;;;17.00;100.00;101749.69;5027464;28;20066;-32
2022/06/18 03:21:38;;;;;;;11.88;3.78;;;;;;;17.00;100.00;101749.69;5011615;28;20108;-29
2022/06/18 03:24:06;;;;;;;9.00;4.00;;;;;;;16.99;100.00;101748.84;5012588;28;20045;-32
2022/06/18 03:26:37;;;;;;;8.65;3.30;;;;;;;16.98;100.00;101749.19;5011930;28;20132;-28
2022/06/18 03:29:11;;;;;;;6.28;3.00;;;;;;;16.98;100.00;101743.56;5001514;28;20057;-34
2022/06/18 03:31:39;;;;;;;5.95;3.40;;;;;;;16.97;100.00;101754.00;5010606;28;20072;-29
2022/06/18 03:34:08;;;;;;;7.55;2.80;;;;;;;16.98;100.00;101750.03;5010557;28;20136;-30
2022/06/18 03:36:37;;;;;;;5.90;2.90;;;;;;;16.98;100.00;101747.22;5008102;28;20061;-34
2022/06/18 03:39:05;;;;;;;9.05;3.53;;;;;;;16.99;100.00;101746.03;5009767;28;20100;-28
2022/06/18 03:41:34;;;;;;;6.47;3.13;;;;;;;16.99;100.00;101740.38;5009085;28;20058;-33
2022/06/18 03:44:02;;;;;;;4.40;2.53;;;;;;;17.00;100.00;101744.03;5010545;28;20067;-30
2022/06/18 03:46:32;;;;;;;7.03;3.08;;;;;;;17.01;100.00;101745.72;5009207;28;20049;-28
2022/06/18 03:49:03;;;;;;;7.13;3.03;;;;;;;17.01;100.00;101752.19;5009173;28;20076;-31
2022/06/18 03:51:35;;;;;;;5.90;2.72;;;;;;;17.00;100.00;101744.88;5010467;28;20462;-29
2022/06/18 03:54:04;;;;;;;6.95;2.88;;;;;;;17.02;100.00;101753.03;5010895;28;20491;-30
2022/06/18 03:56:33;;;;;;;5.45;2.30;;;;;;;17.02;100.00;101741.75;5026819;28;21247;-27
2022/06/18 03:59:03;;;;;;;4.40;2.10;;;;;;;17.03;100.00;101738.59;5010668;28;20050;-29
2022/06/18 04:01:40;;;;;;;4.35;2.35;;;;;;;17.04;100.00;101745.06;5010775;28;20423;-29
2022/06/18 04:04:10;;;;;;;4.25;2.53;;;;;;;17.06;100.00;101742.75;5009861;28;20052;-37
2022/06/18 04:06:42;;;;;;;7.47;3.10;;;;;;;17.07;100.00;101742.44;5010637;28;20054;-29
2022/06/18 04:09:46;;;;;;;6.28;2.70;;;;;;;17.07;100.00;101748.09;4970638;28;20054;-30
2022/06/18 04:12:21;;;;;;;3.90;2.20;;;;;;;17.09;100.00;101750.59;5001960;28;20136;-28
2022/06/18 04:15:06;;;;;;;5.03;2.20;;;;;;;17.11;100.00;101745.47;5010863;28;20046;-30
2022/06/18 04:18:02;;;;;;;3.67;2.20;;;;;;;17.12;100.00;101736.69;5010641;28;20954;-35
2022/06/18 04:20:33;;;;;;;4.82;2.33;;;;;;;17.16;100.00;101739.69;5010634;28;20046;-29
2022/06/18 04:23:04;;;;;;;5.88;2.50;;;;;;;17.19;100.00;101742.69;5010588;28;20046;-33
2022/06/18 04:25:37;;;;;;;7.80;2.90;;;;;;;17.21;100.00;101745.19;5010134;28;20054;-30
2022/06/18 04:28:05;;;;;;;5.30;2.28;;;;;;;17.26;100.00;101747.88;5010497;28;20092;-35
2022/06/18 04:30:36;;;;;;;5.60;2.80;;;;;;;17.28;100.00;101744.72;5012929;28;20050;-33
2022/06/18 04:33:10;;;;;;;5.97;2.80;;;;;;;17.29;100.00;101752.88;5013410;28;20038;-31
2022/06/18 04:35:51;;;;;;;5.93;2.33;;;;;;;17.33;100.00;101753.91;5014548;28;20046;-32
2022/06/18 04:38:20;;;;;;;7.13;3.10;;;;;;;17.36;100.00;101758.91;5013665;28;20046;-30
2022/06/18 04:41:20;;;;;;;4.32;2.28;;;;;;;17.37;100.00;101763.38;5014081;28;20128;-32
2022/06/18 04:43:53;;;;;;;4.38;2.20;;;;;;;17.43;100.00;101764.06;5015347;28;20042;-29
2022/06/18 04:46:22;;;;;;;6.28;2.63;;;;;;;17.46;100.00;101763.41;5013241;28;20049;-31
2022/06/18 04:48:53;;;;;;;6.72;2.38;;;;;;;17.50;100.00;101767.28;5013990;28;20052;-32
2022/06/18 04:51:21;;;;;;;7.88;2.88;;;;;;;17.53;100.00;101770.28;5015383;28;20125;-33
2022/06/18 04:53:49;;;;;;;5.82;2.20;;;;;;;17.58;100.00;101774.13;5013058;28;20073;-28
2022/06/18 04:56:17;;;;;;;5.93;2.38;;;;;;;17.61;100.00;101774.28;5013554;28;20050;-28
2022/06/18 04:58:47;;;;;;;4.68;2.08;;;;;;;17.65;100.00;101771.69;5013776;28;20046;-28
2022/06/18 05:01:17;;;;;;;7.35;2.50;;;;;;;17.68;100.00;101771.88;5014289;28;20060;-34
2022/06/18 05:04:10;;;;;;;8.52;2.33;;;;;;;17.72;100.00;101772.06;5013675;28;20037;-31
2022/06/18 05:07:07;;;;;;;4.75;1.95;;;;;;;17.74;100.00;101773.41;5005277;28;20610;-33
2022/06/18 05:09:55;;;;;;;3.72;1.77;;;;;;;17.78;100.00;101770.75;5012826;28;20049;-32
2022/06/18 05:12:34;;;;;;;4.22;1.55;;;;;;;17.84;100.00;101781.56;5003434;28;20058;-30
2022/06/18 05:15:22;;;;;;;5.43;1.63;;;;;;;17.89;100.00;101774.94;5010297;28;20502;-32
2022/06/18 05:17:51;;;;;;;5.25;1.38;;;;;;;17.95;100.00;101784.13;5018416;28;20070;-33
2022/06/18 05:20:23;;;;;;;4.78;1.52;;;;;;;18.01;100.00;101785.59;5011895;28;20057;-30
2022/06/18 05:22:55;;;;;;;5.18;2.00;;;;;;;18.06;100.00;101789.13;5013116;28;20077;-31
2022/06/18 05:25:23;;;;;;;4.78;1.67;;;;;;;18.12;100.00;101785.00;5012818;28;20516;-29
2022/06/18 05:27:51;;;;;;;5.80;1.70;;;;;;;18.19;100.00;101782.50;5012377;28;20506;-28
2022/06/18 05:30:27;;;;;;;3.03;1.40;;;;;;;18.23;100.00;101785.50;5013141;28;20046;-39
2022/06/18 05:32:59;;;;;;;3.85;1.42;;;;;;;18.30;100.00;101779.41;5013326;28;20053;-28
2022/06/18 05:35:32;;;;;;;2.20;1.10;;;;;;;18.38;100.00;101785.06;5005344;28;20100;-34
2022/06/18 05:38:03;;;;;;;3.30;1.25;;;;;;;18.49;100.00;101785.56;5011511;28;20041;-28
2022/06/18 05:40:31;;;;;;;5.93;1.40;;;;;;;18.58;100.00;101786.44;5010845;28;20080;-28
2022/06/18 05:42:58;;;;;;;2.05;1.13;;;;;;;18.68;100.00;101788.97;5010870;28;20141;-28
2022/06/18 05:45:26;;;;;;;3.65;1.10;;;;;;;18.78;100.00;101790.63;5012682;28;20074;-28
2022/06/18 05:47:54;;;;;;;3.45;1.10;;;;;;;18.87;100.00;101797.94;5010557;28;20164;-34
2022/06/18 05:50:23;;;;;;;3.65;0.95;;;;;;;18.97;100.00;101796.78;5012218;28;20080;-34
2022/06/18 05:52:52;;;;;;;2.20;1.00;;;;;;;19.06;100.00;101800.44;5012956;28;20088;-30
2022/06/18 05:55:46;;;;;;;2.13;0.80;;;;;;;19.15;100.00;101809.75;5006461;28;20064;-30
2022/06/18 05:58:27;;;;;;;2.35;0.85;;;;;;;19.23;100.00;101808.91;5010716;28;20399;-28
2022/06/18 06:01:02;;;;;;;2.95;0.80;;;;;;;19.32;100.00;101810.91;5010467;28;20050;-29
2022/06/18 06:03:31;;;;;;;1.52;0.60;;;;;;;19.40;100.00;101802.38;5010647;28;20490;-28
2022/06/18 06:06:01;;;;;;;2.42;0.75;;;;;;;19.50;100.00;101804.06;5010365;28;20050;-29
2022/06/18 06:08:32;;;;;;;2.75;0.73;;;;;;;19.60;100.00;101809.34;5008392;28;20048;-37
2022/06/18 06:13:45;;;;;;;3.15;0.80;;;;;;;19.80;100.00;101802.13;5011224;28;20050;-29
2022/06/18 06:16:13;;;;;;;3.53;0.90;;;;;;;19.90;100.00;101811.09;5012059;28;20132;-33
2022/06/18 06:18:41;;;;;;;3.05;1.00;;;;;;;20.03;100.00;101814.88;5011718;28;20052;-32
2022/06/18 06:21:08;;;;;;;4.63;1.35;;;;;;;20.16;100.00;101813.00;5011378;28;20054;-29
2022/06/18 06:23:38;;;;;;;2.45;0.95;;;;;;;20.25;100.00;101811.75;5026632;28;20149;-31
2022/06/18 06:26:14;;;;;;;3.63;1.10;;;;;;;20.35;100.00;101823.91;5011785;28;20138;-29
2022/06/18 06:28:43;;;;;;;2.78;0.88;;;;;;;20.43;100.00;101820.19;5012037;28;20141;-30
2022/06/18 06:31:11;;;;;;;3.15;0.95;;;;;;;20.53;100.00;101819.81;5010893;28;20054;-30
2022/06/18 06:33:39;;;;;;;2.60;0.93;;;;;;;20.69;100.00;101825.69;5010592;28;20073;-28
2022/06/18 06:36:07;;;;;;;3.33;0.90;;;;;;;20.89;100.00;101819.22;5011470;28;20046;-29
2022/06/18 06:38:37;;;;;;;2.42;1.00;;;;;;;21.16;100.00;101829.19;5010949;28;20054;-26
2022/06/18 06:41:12;;;;;;;2.33;0.80;;;;;;;21.46;100.00;101839.25;5012014;28;20084;-33
2022/06/18 06:43:40;;;;;;;2.47;0.93;;;;;;;21.77;100.00;101841.63;5008854;28;20393;-30
2022/06/18 06:46:12;;;;;;;2.90;0.80;;;;;;;22.04;100.00;101833.63;5004021;28;20080;-30
2022/06/18 06:48:40;;;;;;;2.70;0.95;;;;;;;22.34;100.00;101835.06;5011636;28;20057;-33
2022/06/18 06:51:11;;;;;;;2.90;1.00;;;;;;;22.78;99.20;101833.25;5011872;28;20052;-30
2022/06/18 06:53:39;;;;;;;3.72;0.85;;;;;;;23.11;96.56;101849.31;5009520;28;20082;-35
2022/06/18 06:59:10;;;;;;;2.60;1.10;;;;;;;23.83;91.38;101858.75;4967596;28;20504;-36
2022/06/18 07:01:38;;;;;;;2.63;0.80;;;;;;;24.21;88.94;101867.53;4971780;28;20057;-35
2022/06/18 07:04:09;;;;;;;3.05;0.95;;;;;;;24.49;86.35;101858.91;4989747;28;20052;-35
2022/06/18 07:06:37;;;;;;;4.97;0.82;;;;;;;24.66;85.04;101864.22;5012364;28;20053;-31
2022/06/18 07:09:07;;;;;;;1.92;0.70;;;;;;;24.99;84.06;101860.09;5012502;28;20490;-34
2022/06/18 07:11:38;;;;;;;2.40;0.77;;;;;;;25.38;82.21;101869.53;5002001;28;20146;-38
2022/06/18 07:14:06;;;;;;;1.95;0.80;;;;;;;25.70;79.02;101859.63;5011774;28;20511;-37
2022/06/18 07:16:34;;;;;;;2.70;0.80;;;;;;;26.05;77.21;101868.03;5012689;28;20060;-36
2022/06/18 07:19:02;;;;;;;2.72;0.75;;;;;;;26.33;75.06;101867.75;5012271;28;20463;-33
2022/06/18 07:21:34;;;;;;;3.88;0.90;;;;;;;26.55;72.66;101868.94;5011397;28;20069;-35
2022/06/18 07:24:02;;;;;;;1.95;0.63;;;;;;;26.77;72.19;101859.47;5010900;28;20129;-33
2022/06/18 07:26:29;;;;;;;3.55;0.70;;;;;;;27.00;69.67;101856.53;5011082;28;20067;-29
2022/06/18 07:28:58;;;;;;;2.00;0.55;;;;;;;27.26;69.48;101863.44;5010478;28;20067;-32
2022/06/18 07:31:30;;;;;;;1.90;0.70;;;;;;;27.53;66.46;101862.16;5012160;28;20073;-38
2022/06/18 07:33:59;;;;;;;1.95;0.63;;;;;;;27.67;65.63;101868.09;5011846;28;20092;-32
2022/06/18 07:36:28;;;;;;;2.00;0.60;;;;;;;27.92;64.49;101858.94;5011838;28;20060;-34
2022/06/18 07:38:56;;;;;;;2.33;0.90;;;;;;;28.07;62.93;101855.81;5012379;28;20030;-31
2022/06/18 07:41:30;;;;;;;2.15;0.80;;;;;;;28.28;62.29;101852.34;5011450;28;20046;-35
2022/06/18 07:43:59;;;;;;;2.33;0.68;;;;;;;28.51;61.50;101859.94;5012278;28;20049;-33
2022/06/18 07:46:27;;;;;;;2.13;0.60;;;;;;;28.78;61.05;101864.22;5011979;28;20042;-34
2022/06/18 07:48:56;;;;;;;2.17;0.63;;;;;;;29.10;58.81;101853.78;5011125;28;20065;-31
2022/06/18 07:51:24;;;;;;;2.70;0.70;;;;;;;29.34;57.81;101851.44;5012103;28;20050;-38
2022/06/18 07:53:52;;;;;;;3.17;0.90;;;;;;;29.61;56.87;101838.41;5012122;28;20055;-32
2022/06/18 07:56:20;;;;;;;2.25;0.70;;;;;;;29.94;56.31;101847.94;5011063;28;20065;-32
2022/06/18 07:58:48;;;;;;;2.83;1.05;;;;;;;30.21;54.48;101849.22;5012147;28;20057;-39
2022/06/18 08:01:17;;;;;;;1.88;0.60;;;;;;;30.39;53.44;101852.94;5011687;28;20176;-32
2022/06/18 08:03:45;;;;;;;2.60;0.73;;;;;;;30.52;52.28;101852.53;5012638;28;20049;-30
2022/06/18 08:06:13;;;;;;;3.08;0.70;;;;;;;30.69;51.78;101858.28;5015787;28;20057;-29
2022/06/18 08:08:41;;;;;;;2.88;0.70;;;;;;;30.88;51.18;101854.16;5016251;28;20062;-36
2022/06/18 08:11:12;;;;;;;2.17;0.60;;;;;;;31.09;50.29;101856.16;5014955;28;20130;-30
2022/06/18 08:13:40;;;;;;;2.05;0.60;;;;;;;31.25;49.55;101852.81;5005674;28;20570;-38
2022/06/18 08:16:09;;;;;;;4.20;0.90;;;;;;;31.36;48.28;101860.22;5014789;28;20048;-31
2022/06/18 08:18:38;;;;;;;2.55;0.90;;;;;;;31.40;47.10;101858.13;5015522;28;20513;-34
2022/06/18 08:21:10;;;;;;;3.05;0.70;;;;;;;31.40;46.83;101863.06;5015688;28;20383;-34
2022/06/18 08:23:39;;;;;;;2.35;0.70;;;;;;;31.45;47.10;101860.56;5015277;28;20392;-29
2022/06/18 08:26:07;;;;;;;4.30;0.85;;;;;;;31.65;46.88;101866.66;5015570;28;20056;-41
2022/06/18 08:28:37;;;;;;;2.03;0.70;;;;;;;31.80;46.40;101864.53;5015432;28;20054;-30
2022/06/18 08:31:06;;;;;;;1.70;0.65;;;;;;;31.90;46.41;101869.44;5015213;28;20056;-29
2022/06/18 08:33:35;;;;;;;2.10;0.70;;;;;;;32.15;45.75;101864.31;5015466;28;20042;-31
2022/06/18 08:36:08;;;;;;;1.88;0.70;;;;;;;32.34;43.97;101862.97;5015402;28;20053;-38
2022/06/18 08:38:38;;;;;;;2.85;0.80;;;;;;;32.36;44.08;101872.03;5014341;28;20052;-31
2022/06/18 08:41:20;;;;;;;3.83;0.90;;;;;;;32.35;43.56;101864.59;5015385;28;20081;-34
2022/06/18 08:44:22;;;;;;;2.88;0.75;;;;;;;32.43;42.23;101859.56;5014028;28;20541;-38
2022/06/18 08:46:59;;;;;;;3.05;0.70;;;;;;;32.46;42.30;101859.53;5014854;28;20064;-30
2022/06/18 08:49:42;;;;;;;2.22;0.75;;;;;;;32.47;43.34;101857.47;5015118;28;20085;-33
2022/06/18 08:52:28;;;;;;;3.20;0.98;;;;;;;32.56;42.32;101865.66;5014336;28;20463;-33
2022/06/18 08:55:04;;;;;;;2.58;0.63;;;;;;;32.58;41.61;101863.97;5015241;28;20057;-35
2022/06/18 08:57:42;;;;;;;2.47;0.80;;;;;;;32.66;41.73;101864.72;5014782;28;20054;-36
2022/06/18 09:00:14;;;;;;;4.38;0.80;;;;;;;32.80;42.33;101859.66;5014856;28;20042;-31
2022/06/18 09:02:49;;;;;;;3.90;0.80;;;;;;;33.01;41.24;101864.38;5014677;28;20046;-35
2022/06/18 09:05:48;;;;;;;2.22;0.70;;;;;;;33.26;40.95;101866.19;5005820;28;20099;-31
2022/06/18 09:08:31;;;;;;;2.20;0.70;;;;;;;33.37;39.50;101861.94;5014513;28;20042;-30
2022/06/18 09:11:12;;;;;;;1.55;0.55;;;;;;;33.47;39.44;101865.94;5015182;28;20046;-33
2022/06/18 09:13:44;;;;;;;1.38;0.47;;;;;;;33.58;39.51;101857.09;5013583;28;20060;-38
2022/06/18 09:16:16;;;;;;;1.83;0.68;;;;;;;33.81;39.13;101842.75;5013887;28;20053;-41
2022/06/18 09:18:49;;;;;;;1.95;0.60;;;;;;;33.87;38.49;101841.81;5014249;28;20085;-34
2022/06/18 09:21:22;;;;;;;2.42;0.80;;;;;;;33.65;38.96;101852.03;5013980;28;20071;-29
2022/06/18 09:23:56;;;;;;;2.05;0.60;;;;;;;33.33;39.19;101866.13;5014390;28;20069;-30
2022/06/18 09:26:32;;;;;;;2.53;0.63;;;;;;;33.02;39.39;101866.03;5014006;28;20042;-29
2022/06/18 09:29:06;;;;;;;4.45;1.17;;;;;;;33.10;39.94;101866.78;5014227;28;20053;-42
2022/06/18 09:31:41;;;;;;;2.85;0.65;;;;;;;33.28;39.54;101858.75;5014905;28;20050;-34
2022/06/18 09:34:15;;;;;;;1.90;0.60;;;;;;;33.39;39.47;101862.31;5013765;28;20384;-30
2022/06/18 09:36:46;;;;;;;3.97;0.77;;;;;;;33.33;39.88;101857.44;5014448;28;20515;-30
2022/06/18 09:39:22;;;;;;;3.35;0.90;;;;;;;33.32;39.28;101853.72;5014103;28;20038;-30
2022/06/18 09:41:56;;;;;;;2.05;0.75;;;;;;;33.38;38.86;101842.47;5013618;28;20911;-33
2022/06/18 09:44:28;;;;;;;2.08;0.68;;;;;;;33.31;38.52;101842.59;5014231;28;20193;-34
2022/06/18 09:47:01;;;;;;;2.17;0.70;;;;;;;33.12;38.45;101841.13;5014231;28;20081;-29
2022/06/18 09:49:30;;;;;;;4.13;0.90;;;;;;;32.86;39.33;101828.22;5013160;28;20487;-29
2022/06/18 09:52:03;;;;;;;3.17;0.80;;;;;;;32.95;39.58;101831.41;5014068;28;20046;-33
2022/06/18 09:54:37;;;;;;;2.20;0.70;;;;;;;33.15;39.63;101840.28;5013114;28;20132;-35
2022/06/18 09:57:05;;;;;;;2.08;0.65;;;;;;;33.35;39.00;101831.78;5003732;28;20157;-30
2022/06/18 09:59:37;;;;;;;2.53;0.77;;;;;;;33.51;38.55;101805.94;5013618;28;20045;-29
2022/06/18 10:02:16;;;;;;;2.72;0.73;;;;;;;33.67;37.93;101800.31;5013311;28;20053;-32
2022/06/18 10:07:34;;;;;;;2.25;0.60;;;;;;;33.73;37.62;101792.78;5010368;28;20052;-37
2022/06/18 10:10:09;;;;;;;2.50;0.57;;;;;;;33.81;37.32;101784.81;5012803;28;20046;-32
2022/06/18 10:12:39;;;;;;;1.98;0.60;;;;;;;33.96;36.83;101786.25;5013839;28;20546;-37
2022/06/18 10:15:10;;;;;;;2.20;0.50;;;;;;;34.15;36.23;101799.19;5013553;28;20065;-34
2022/06/18 10:17:44;;;;;;;;;;;;;;;34.14;33.70;101803.34;5013547;28;20292;-32
2022/06/18 10:20:19;;;;;;;2.67;0.65;;;;;;;34.15;35.84;101791.31;5013247;28;20374;-36
2022/06/18 10:23:00;;;;;;;1.52;0.40;;;;;;;34.26;34.65;101787.38;5012959;28;20061;-33
2022/06/18 10:25:36;;;;;;;2.35;0.60;;;;;;;34.31;34.75;101790.63;5013699;28;20072;-32
2022/06/18 10:28:13;;;;;;;1.80;0.50;;;;;;;34.28;34.90;101793.56;5001754;28;20582;-32
2022/06/18 10:30:56;;;;;;;2.13;0.50;;;;;;;34.43;35.20;101804.47;5012511;28;20046;-33
2022/06/18 10:33:33;;;;;;;2.00;0.52;;;;;;;34.37;35.04;101794.69;5003934;28;20120;-37
2022/06/18 10:36:08;;;;;;;1.90;0.50;;;;;;;34.20;34.85;101789.97;5013313;28;20056;-32
2022/06/18 10:38:53;;;;;;;2.97;0.70;;;;;;;34.17;35.48;101802.47;5012801;28;20046;-38
2022/06/18 10:41:26;;;;;;;1.75;0.57;;;;;;;34.13;36.20;101801.69;5013042;28;20056;-35
2022/06/18 10:44:12;;;;;;;1.85;0.68;;;;;;;34.27;35.63;101804.34;5012627;28;20128;-32
2022/06/18 10:46:42;;;;;;;1.98;0.63;;;;;;;34.38;35.96;101798.38;5012719;28;20562;-33
2022/06/18 10:49:10;;;;;;;2.20;0.50;;;;;;;34.49;35.45;101808.53;5013371;28;20380;-38
2022/06/18 10:51:43;;;;;;;2.67;0.65;;;;;;;34.61;34.25;101798.34;5011938;28;20093;-33
2022/06/18 10:54:11;;;;;;;2.65;0.93;;;;;;;34.51;34.27;101811.81;5013197;28;20054;-32
2022/06/18 10:56:50;;;;;;;2.17;0.68;;;;;;;34.45;34.10;101812.75;5012585;28;20053;-36
2022/06/18 10:59:29;;;;;;;2.65;0.88;;;;;;;34.39;35.02;101824.00;5002976;28;20522;-33
2022/06/18 11:02:04;;;;;;;2.85;0.70;;;;;;;34.37;33.99;101835.25;5012518;28;20055;-32
2022/06/18 11:04:33;;;;;;;2.92;0.70;;;;;;;34.19;34.42;101840.47;5013051;28;20120;-33
2022/06/18 11:07:03;;;;;;;3.03;0.80;;;;;;;34.12;34.76;101847.22;5012171;28;20042;-36
2022/06/18 11:09:34;;;;;;;2.47;0.60;;;;;;;33.97;34.11;101857.41;5002751;28;20049;-32
2022/06/18 11:12:07;;;;;;;3.55;0.70;;;;;;;33.92;34.06;101848.38;5011845;28;20050;-31
2022/06/18 11:14:42;;;;;;;2.78;0.70;;;;;;;33.94;33.73;101845.88;5011555;28;20073;-35
2022/06/18 11:17:20;;;;;;;2.58;0.70;;;;;;;33.93;33.21;101832.66;5012329;28;20042;-38
2022/06/18 11:19:49;;;;;;;3.03;0.70;;;;;;;33.72;34.21;101837.47;5012477;28;20054;-33
2022/06/18 11:22:22;;;;;;;2.83;0.60;;;;;;;33.61;34.50;101847.53;5012169;28;20068;-39
2022/06/18 11:24:54;;;;;;;3.35;1.00;;;;;;;33.57;34.12;101841.00;5012650;28;20052;-39
2022/06/18 11:27:28;;;;;;;4.03;0.90;;;;;;;33.45;33.75;101842.41;5011567;28;20052;-40
2022/06/18 11:29:57;;;;;;;3.28;1.00;;;;;;;33.40;34.38;101845.75;5012352;28;20048;-37
2022/06/18 11:32:27;;;;;;;5.53;1.00;;;;;;;33.32;33.42;101855.81;5012198;28;20046;-32
2022/06/18 11:35:02;;;;;;;4.45;0.90;;;;;;;33.19;32.89;101856.31;5008786;28;20457;-33
2022/06/18 11:37:32;;;;;;;4.28;1.08;;;;;;;32.89;33.28;101849.66;5012157;28;20042;-32
2022/06/18 11:40:03;;;;;;;3.17;0.90;;;;;;;32.69;33.53;101852.31;5011296;28;20046;-32
2022/06/18 11:42:39;;;;;;;3.25;0.85;;;;;;;32.51;34.11;101858.28;5012190;28;20053;-33
2022/06/18 11:45:26;;;;;;;2.80;0.50;;;;;;;32.42;34.39;101855.03;5012494;28;20485;-40
2022/06/18 11:48:00;;;;;;;3.42;0.73;;;;;;;32.50;34.52;101856.63;5010824;28;20304;-32
2022/06/18 11:50:35;;;;;;;3.42;0.95;;;;;;;32.61;34.77;101868.91;5012104;28;20046;-40
2022/06/18 11:53:10;;;;;;;5.53;1.25;;;;;;;32.64;33.61;101873.00;5011943;28;20088;-35
2022/06/18 11:55:43;;;;;;;4.68;0.90;;;;;;;32.50;33.80;101863.22;5008275;28;20057;-38
2022/06/18 11:58:19;;;;;;;3.78;0.95;;;;;;;32.50;33.31;101863.22;5012034;28;20049;-35